createdAt,value
2019-03-28T00:01:15.912Z,98.23
2019-03-28T00:25:02.142Z,100.00
2019-03-28T00:27:30.610Z,99.31
2019-03-28T00:29:59.126Z,99.69
2019-03-28T00:32:29.134Z,99.60
2019-03-28T00:34:57.651Z,99.78
2019-03-28T00:37:26.277Z,100.00
2019-03-28T00:39:55.358Z,100.00
2019-03-28T00:42:23.789Z,100.00
2019-03-28T00:44:52.293Z,100.00
2019-03-28T00:47:22.044Z,100.00
2019-03-28T00:49:50.524Z,99.36
2019-03-28T00:52:18.994Z,99.13
2019-03-28T00:54:47.540Z,99.36
2019-03-28T00:57:15.992Z,99.94
2019-03-28T00:59:44.476Z,100.00
2019-03-28T01:02:12.974Z,100.00
2019-03-28T01:04:41.452Z,100.00
2019-03-28T01:07:09.922Z,100.00
2019-03-28T01:09:38.435Z,100.00
2019-03-28T01:12:07.174Z,99.97
2019-03-28T01:14:35.670Z,100.00
2019-03-28T01:17:04.172Z,100.00
2019-03-28T01:19:32.674Z,100.00
2019-03-28T01:22:01.342Z,100.00
2019-03-28T01:24:29.799Z,100.00
2019-03-28T01:26:58.956Z,100.00
2019-03-28T01:29:28.098Z,100.00
2019-03-28T01:31:56.562Z,100.00
2019-03-28T01:34:25.051Z,100.00
2019-03-28T01:36:53.516Z,100.00
2019-03-28T01:39:22.002Z,100.00
2019-03-28T01:41:50.472Z,100.00
2019-03-28T01:44:18.966Z,100.00
2019-03-28T01:46:47.434Z,100.00
2019-03-28T01:49:15.930Z,100.00
2019-03-28T01:51:44.396Z,100.00
2019-03-28T01:54:12.896Z,100.00
2019-03-28T01:56:41.361Z,100.00
2019-03-28T01:59:09.855Z,100.00
2019-03-28T02:01:38.325Z,100.00
2019-03-28T02:04:06.790Z,100.00
2019-03-28T02:06:35.308Z,100.00
2019-03-28T02:09:06.112Z,100.00
2019-03-28T02:11:34.833Z,100.00
2019-03-28T02:14:03.342Z,100.00
2019-03-28T02:16:31.805Z,100.00
2019-03-28T02:19:00.279Z,100.00
2019-03-28T02:21:28.767Z,100.00
2019-03-28T02:23:57.238Z,100.00
2019-03-28T02:26:25.738Z,100.00
2019-03-28T02:28:54.245Z,100.00
2019-03-28T02:31:22.742Z,100.00
2019-03-28T02:33:51.223Z,100.00
2019-03-28T02:36:19.722Z,100.00
2019-03-28T02:38:48.197Z,100.00
2019-03-28T02:41:16.765Z,100.00
2019-03-28T02:43:45.598Z,100.00
2019-03-28T02:46:14.326Z,100.00
2019-03-28T02:48:42.803Z,100.00
2019-03-28T02:51:11.308Z,100.00
2019-03-28T02:53:39.877Z,100.00
2019-03-28T02:56:08.371Z,100.00
2019-03-28T02:58:37.107Z,100.00
2019-03-28T03:01:05.623Z,100.00
2019-03-28T03:03:34.109Z,100.00
2019-03-28T03:06:02.610Z,100.00
2019-03-28T03:08:31.090Z,100.00
2019-03-28T03:10:59.581Z,100.00
2019-03-28T03:13:28.056Z,100.00
2019-03-28T03:15:56.967Z,100.00
2019-03-28T03:18:25.740Z,100.00
2019-03-28T03:20:54.234Z,100.00
2019-03-28T03:23:22.709Z,100.00
2019-03-28T03:25:51.208Z,100.00
2019-03-28T03:28:19.696Z,100.00
2019-03-28T03:30:48.189Z,100.00
2019-03-28T03:33:16.753Z,100.00
2019-03-28T03:35:45.214Z,100.00
2019-03-28T03:38:13.699Z,100.00
2019-03-28T03:40:42.172Z,100.00
2019-03-28T03:43:11.142Z,100.00
2019-03-28T03:45:39.621Z,100.00
2019-03-28T03:48:08.115Z,100.00
2019-03-28T03:50:36.596Z,100.00
2019-03-28T03:53:05.116Z,100.00
2019-03-28T03:55:33.557Z,100.00
2019-03-28T03:58:15.626Z,100.00
2019-03-28T04:00:36.685Z,100.00
2019-03-28T04:03:05.374Z,100.00
2019-03-28T04:05:34.001Z,100.00
2019-03-28T04:08:02.488Z,100.00
2019-03-28T04:10:31.030Z,100.00
2019-03-28T04:12:59.532Z,100.00
2019-03-28T04:15:28.025Z,100.00
2019-03-28T04:17:56.528Z,100.00
2019-03-28T04:20:25.338Z,100.00
2019-03-28T04:22:54.046Z,100.00
2019-03-28T04:25:23.086Z,100.00
2019-03-28T04:27:51.571Z,100.00
2019-03-28T04:30:20.054Z,100.00
2019-03-28T04:32:48.517Z,100.00
2019-03-28T04:35:17.004Z,100.00
2019-03-28T04:37:45.489Z,100.00
2019-03-28T04:40:14.038Z,100.00
2019-03-28T04:42:45.566Z,100.00
2019-03-28T04:45:12.871Z,100.00
2019-03-28T04:47:41.335Z,100.00
2019-03-28T04:50:10.764Z,100.00
2019-03-28T04:52:39.233Z,100.00
2019-03-28T04:55:07.789Z,100.00
2019-03-28T04:57:36.264Z,100.00
2019-03-28T05:00:07.339Z,100.00
2019-03-28T05:02:35.922Z,100.00
2019-03-28T05:05:06.494Z,100.00
2019-03-28T05:07:35.092Z,100.00
2019-03-28T05:10:04.653Z,100.00
2019-03-28T05:12:33.119Z,100.00
2019-03-28T05:15:01.624Z,100.00
2019-03-28T05:17:30.109Z,100.00
2019-03-28T05:19:58.588Z,100.00
2019-03-28T05:22:27.064Z,100.00
2019-03-28T05:24:55.550Z,100.00
2019-03-28T05:27:24.030Z,100.00
2019-03-28T05:29:52.514Z,100.00
2019-03-28T05:32:20.984Z,100.00
2019-03-28T05:34:49.470Z,100.00
2019-03-28T05:37:17.939Z,100.00
2019-03-28T05:39:46.433Z,100.00
2019-03-28T05:42:14.902Z,100.00
2019-03-28T05:44:43.395Z,100.00
2019-03-28T05:47:11.866Z,100.00
2019-03-28T05:49:40.361Z,100.00
2019-03-28T05:52:11.637Z,100.00
2019-03-28T05:54:39.048Z,100.00
2019-03-28T05:57:07.516Z,100.00
2019-03-28T05:59:36.004Z,100.00
2019-03-28T06:02:04.477Z,100.00
2019-03-28T06:04:32.979Z,100.00
2019-03-28T06:07:01.448Z,100.00
2019-03-28T06:09:29.944Z,100.00
2019-03-28T06:11:58.404Z,100.00
2019-03-28T06:14:26.895Z,100.00
2019-03-28T06:16:55.363Z,100.00
2019-03-28T06:19:23.852Z,100.00
2019-03-28T06:21:52.324Z,100.00
2019-03-28T06:24:20.784Z,100.00
2019-03-28T06:26:50.109Z,100.00
2019-03-28T06:29:24.049Z,100.00
2019-03-28T06:31:55.131Z,100.00
2019-03-28T06:34:19.180Z,100.00
2019-03-28T06:36:47.659Z,100.00
2019-03-28T06:39:16.503Z,100.00
2019-03-28T06:41:45.224Z,100.00
2019-03-28T06:44:13.713Z,100.00
2019-03-28T06:46:42.193Z,100.00
2019-03-28T06:49:10.677Z,100.00
2019-03-28T06:51:39.148Z,100.00
2019-03-28T06:54:07.616Z,100.00
2019-03-28T06:56:36.112Z,100.00
2019-03-28T06:59:04.568Z,100.00
2019-03-28T07:01:33.056Z,100.00
2019-03-28T07:04:01.540Z,100.00
2019-03-28T07:06:30.041Z,100.00
2019-03-28T07:08:58.521Z,100.00
2019-03-28T07:11:27.025Z,100.00
2019-03-28T07:13:55.496Z,100.00
2019-03-28T07:16:23.987Z,100.00
2019-03-28T07:18:52.464Z,100.00
2019-03-28T07:21:20.961Z,100.00
2019-03-28T07:23:49.425Z,100.00
2019-03-28T07:26:17.915Z,100.00
2019-03-28T07:28:46.385Z,100.00
2019-03-28T07:31:14.880Z,100.00
2019-03-28T07:33:43.349Z,100.00
2019-03-28T07:36:11.842Z,100.00
2019-03-28T07:38:40.318Z,100.00
2019-03-28T07:41:08.815Z,100.00
2019-03-28T07:43:37.277Z,100.00
2019-03-28T07:46:05.761Z,100.00
2019-03-28T07:48:34.247Z,100.00
2019-03-28T07:51:02.734Z,100.00
2019-03-28T07:53:31.213Z,100.00
2019-03-28T07:55:59.704Z,100.00
2019-03-28T07:58:28.168Z,100.00
2019-03-28T08:00:56.663Z,100.00
2019-03-28T08:03:25.147Z,100.00
2019-03-28T08:05:54.484Z,100.00
2019-03-28T08:08:23.090Z,100.00
2019-03-28T08:10:51.589Z,100.00
2019-03-28T08:13:20.123Z,100.00
2019-03-28T08:15:48.622Z,100.00
2019-03-28T08:18:17.087Z,100.00
2019-03-28T08:20:45.589Z,100.00
2019-03-28T08:23:14.090Z,100.00
2019-03-28T08:25:42.558Z,100.00
2019-03-28T08:28:11.037Z,100.00
2019-03-28T08:30:40.313Z,100.00
2019-03-28T08:33:09.253Z,100.00
2019-03-28T08:35:38.390Z,100.00
2019-03-28T08:38:10.087Z,100.00
2019-03-28T08:40:40.251Z,100.00
2019-03-28T08:43:08.997Z,100.00
2019-03-28T08:45:37.505Z,100.00
2019-03-28T08:48:06.051Z,100.00
2019-03-28T08:50:34.539Z,100.00
2019-03-28T08:53:03.277Z,99.65
2019-03-28T08:55:31.742Z,99.59
2019-03-28T08:58:00.224Z,99.62
2019-03-28T09:00:35.330Z,99.14
2019-03-28T09:02:58.915Z,98.93
2019-03-28T09:05:27.453Z,98.83
2019-03-28T09:07:55.938Z,98.80
2019-03-28T09:10:24.423Z,98.35
2019-03-28T09:12:52.901Z,98.56
2019-03-28T09:15:21.546Z,98.33
2019-03-28T09:17:50.029Z,98.40
2019-03-28T09:20:18.566Z,98.04
2019-03-28T09:22:47.058Z,98.12
2019-03-28T09:25:15.710Z,98.50
2019-03-28T09:27:44.248Z,97.96
2019-03-28T09:30:13.314Z,98.57
2019-03-28T09:32:41.827Z,98.54
2019-03-28T09:35:12.981Z,98.30
2019-03-28T09:37:41.464Z,97.64
2019-03-28T09:40:10.001Z,98.49
2019-03-28T09:42:38.495Z,98.42
2019-03-28T09:45:08.104Z,98.87
2019-03-28T09:47:36.609Z,98.30
2019-03-28T09:50:07.023Z,97.92
2019-03-28T09:52:35.565Z,98.17
2019-03-28T09:55:04.830Z,98.30
2019-03-28T09:57:33.327Z,98.46
2019-03-28T10:00:01.806Z,98.05
2019-03-28T10:02:30.291Z,97.83
2019-03-28T10:04:58.757Z,97.65
2019-03-28T10:07:27.256Z,97.57
2019-03-28T10:09:55.964Z,97.78
2019-03-28T10:12:24.598Z,98.08
2019-03-28T10:14:53.069Z,98.19
2019-03-28T10:17:21.559Z,98.41
2019-03-28T10:19:50.021Z,97.86
2019-03-28T10:22:18.522Z,98.58
2019-03-28T10:24:46.986Z,98.40
2019-03-28T10:27:15.472Z,97.87
2019-03-28T10:29:44.015Z,97.95
2019-03-28T10:32:12.496Z,98.04
2019-03-28T10:34:41.034Z,97.87
2019-03-28T10:37:09.532Z,97.90
2019-03-28T10:39:38.000Z,97.60
2019-03-28T10:42:06.563Z,97.25
2019-03-28T10:44:35.034Z,97.41
2019-03-28T10:47:04.995Z,96.71
2019-03-28T10:49:33.778Z,96.50
2019-03-28T10:52:04.067Z,96.84
2019-03-28T10:54:32.452Z,97.16
2019-03-28T10:57:12.909Z,96.74
2019-03-28T10:59:31.152Z,97.31
2019-03-28T11:01:59.638Z,96.95
2019-03-28T11:04:28.122Z,96.88
2019-03-28T11:06:56.604Z,96.80
2019-03-28T11:09:25.080Z,96.21
2019-03-28T11:11:53.567Z,96.37
2019-03-28T11:14:22.058Z,96.28
2019-03-28T11:16:50.527Z,96.08
2019-03-28T11:19:19.015Z,96.23
2019-03-28T11:21:47.661Z,95.90
2019-03-28T11:24:16.144Z,95.44
2019-03-28T11:26:44.626Z,94.87
2019-03-28T11:29:13.108Z,95.27
2019-03-28T11:31:47.780Z,95.08
2019-03-28T11:34:11.812Z,94.32
2019-03-28T11:36:40.269Z,94.98
2019-03-28T11:39:08.761Z,94.36
2019-03-28T11:41:37.216Z,93.74
2019-03-28T11:44:05.707Z,94.17
2019-03-28T11:46:34.177Z,94.15
2019-03-28T11:49:02.665Z,94.69
2019-03-28T11:51:31.140Z,94.34
2019-03-28T11:53:59.643Z,93.67
2019-03-28T11:56:28.484Z,93.06
2019-03-28T11:58:56.976Z,92.90
2019-03-28T12:01:25.448Z,93.11
2019-03-28T12:03:53.949Z,92.84
2019-03-28T12:06:22.414Z,92.68
2019-03-28T12:08:50.906Z,92.99
2019-03-28T12:11:19.399Z,93.37
2019-03-28T12:13:47.900Z,93.52
2019-03-28T12:16:16.983Z,93.79
2019-03-28T12:18:45.639Z,93.58
2019-03-28T12:21:14.109Z,93.42
2019-03-28T12:23:42.604Z,93.25
2019-03-28T12:26:11.075Z,93.25
2019-03-28T12:28:39.567Z,93.20
2019-03-28T12:31:08.037Z,93.48
2019-03-28T12:33:36.529Z,93.64
2019-03-28T12:36:05.001Z,93.48
2019-03-28T12:38:33.496Z,93.17
2019-03-28T12:41:01.976Z,93.32
2019-03-28T12:43:30.498Z,93.14
2019-03-28T12:45:58.962Z,92.89
2019-03-28T12:48:27.456Z,92.84
2019-03-28T12:50:58.939Z,93.13
2019-03-28T12:53:26.145Z,93.36
2019-03-28T12:55:54.608Z,93.06
2019-03-28T12:58:23.364Z,92.46
2019-03-28T13:00:51.823Z,92.56
2019-03-28T13:03:20.308Z,92.52
2019-03-28T13:05:48.778Z,92.50
2019-03-28T13:08:17.767Z,92.80
2019-03-28T13:10:46.513Z,92.67
2019-03-28T13:13:15.921Z,92.78
2019-03-28T13:15:44.395Z,93.16
2019-03-28T13:18:12.884Z,93.17
2019-03-28T13:20:41.344Z,93.01
2019-03-28T13:23:09.851Z,92.74
2019-03-28T13:25:38.322Z,92.58
2019-03-28T13:28:06.779Z,92.80
2019-03-28T13:30:35.266Z,92.43
2019-03-28T13:33:03.739Z,92.57
2019-03-28T13:35:34.948Z,92.57
2019-03-28T13:38:02.503Z,92.47
2019-03-28T13:40:30.991Z,93.01
2019-03-28T13:42:59.473Z,92.98
2019-03-28T13:45:27.958Z,92.68
2019-03-28T13:47:56.425Z,92.50
2019-03-28T13:50:25.081Z,92.38
2019-03-28T13:52:53.541Z,92.59
2019-03-28T13:55:22.023Z,92.26
2019-03-28T13:57:52.247Z,92.01
2019-03-28T14:00:23.761Z,91.75
2019-03-28T14:02:57.281Z,91.59
2019-03-28T14:05:22.523Z,91.20
2019-03-28T14:07:50.995Z,91.08
2019-03-28T14:10:21.751Z,91.05
2019-03-28T14:12:49.693Z,90.88
2019-03-28T14:15:18.240Z,91.00
2019-03-28T14:17:46.704Z,90.94
2019-03-28T14:20:15.927Z,91.20
2019-03-28T14:22:44.406Z,91.56
2019-03-28T14:25:13.075Z,91.64
2019-03-28T14:27:41.573Z,92.10
2019-03-28T14:30:11.381Z,92.19
2019-03-28T14:32:52.459Z,92.37
2019-03-28T14:35:10.632Z,92.09
2019-03-28T14:37:40.764Z,91.60
2019-03-28T14:40:11.019Z,92.20
2019-03-28T14:42:40.719Z,92.03
2019-03-28T14:45:09.906Z,91.93
2019-03-28T14:47:38.441Z,91.59
2019-03-28T14:50:08.730Z,91.60
2019-03-28T14:52:37.204Z,91.89
2019-03-28T14:55:06.707Z,92.22
2019-03-28T14:57:35.946Z,92.09
2019-03-28T15:00:09.928Z,92.07
2019-03-28T15:02:38.421Z,92.26
2019-03-28T15:05:07.120Z,92.59
2019-03-28T15:07:35.617Z,92.30
2019-03-28T15:10:06.845Z,92.68
2019-03-28T15:12:35.338Z,93.26
2019-03-28T15:15:05.647Z,94.30
2019-03-28T15:17:34.138Z,94.83
2019-03-28T15:20:02.720Z,94.32
2019-03-28T15:22:31.200Z,95.00
2019-03-28T15:24:59.677Z,95.41
2019-03-28T15:27:28.171Z,95.81
2019-03-28T15:29:56.634Z,95.97
2019-03-28T15:32:25.136Z,97.14
2019-03-28T15:34:53.619Z,96.37
2019-03-28T15:37:22.100Z,96.66
2019-03-28T15:39:50.560Z,97.21
2019-03-28T15:42:19.055Z,97.09
2019-03-28T15:44:47.508Z,96.58
2019-03-28T15:47:16.009Z,96.42
2019-03-28T15:49:44.469Z,96.73
2019-03-28T15:52:13.051Z,97.38
2019-03-28T15:54:41.683Z,98.58
2019-03-28T15:57:10.291Z,98.06
2019-03-28T15:59:38.772Z,98.21
2019-03-28T16:02:07.700Z,98.57
2019-03-28T16:04:36.184Z,97.72
2019-03-28T16:07:04.683Z,97.58
2019-03-28T16:09:33.173Z,98.23
2019-03-28T16:12:03.003Z,97.92
2019-03-28T16:14:31.676Z,97.53
2019-03-28T16:17:00.156Z,98.04
2019-03-28T16:19:28.642Z,98.24
2019-03-28T16:21:57.113Z,98.87
2019-03-28T16:24:25.607Z,98.40
2019-03-28T16:26:54.069Z,98.12
2019-03-28T16:29:22.566Z,98.43
2019-03-28T16:31:51.644Z,98.38
2019-03-28T16:34:20.304Z,98.05
2019-03-28T16:36:48.772Z,97.97
2019-03-28T16:39:17.269Z,97.47
2019-03-28T16:41:45.728Z,97.30
2019-03-28T16:44:14.215Z,97.62
2019-03-28T16:46:42.696Z,97.45
2019-03-28T16:49:11.178Z,97.06
2019-03-28T16:51:39.652Z,97.14
2019-03-28T16:54:08.105Z,97.68
2019-03-28T16:56:36.599Z,97.67
2019-03-28T16:59:05.102Z,97.46
2019-03-28T17:01:33.694Z,97.36
2019-03-28T17:04:02.196Z,96.57
2019-03-28T17:06:31.212Z,97.05
2019-03-28T17:09:00.742Z,98.54
2019-03-28T17:11:29.211Z,98.37
2019-03-28T17:13:57.710Z,97.65
2019-03-28T17:16:26.178Z,97.68
2019-03-28T17:18:54.668Z,98.00
2019-03-28T17:21:23.468Z,97.77
2019-03-28T17:23:52.097Z,97.45
2019-03-28T17:26:20.567Z,97.58
2019-03-28T17:28:49.154Z,97.04
2019-03-28T17:31:18.871Z,97.69
2019-03-28T17:33:47.559Z,97.79
2019-03-28T17:36:16.048Z,97.55
2019-03-28T17:38:44.540Z,97.44
2019-03-28T17:41:13.008Z,97.71
2019-03-28T17:43:41.915Z,97.51
2019-03-28T17:46:12.329Z,97.55
2019-03-28T17:48:40.743Z,97.19
2019-03-28T17:51:09.692Z,96.83
2019-03-28T17:53:38.385Z,95.79
2019-03-28T17:56:06.896Z,96.52
2019-03-28T17:58:35.367Z,96.76
2019-03-28T18:01:04.144Z,96.92
2019-03-28T18:03:32.610Z,97.06
2019-03-28T18:06:01.117Z,96.78
2019-03-28T18:08:29.606Z,96.85
2019-03-28T18:11:00.355Z,96.81
2019-03-28T18:13:28.310Z,97.34
2019-03-28T18:15:56.810Z,97.23
2019-03-28T18:18:25.285Z,96.92
2019-03-28T18:20:53.778Z,96.95
2019-03-28T18:23:22.261Z,97.28
2019-03-28T18:25:50.857Z,97.16
2019-03-28T18:28:19.387Z,97.11
2019-03-28T18:30:47.882Z,97.42
2019-03-28T18:33:16.353Z,97.77
2019-03-28T18:35:44.846Z,97.22
2019-03-28T18:38:13.501Z,97.37
2019-03-28T18:40:41.999Z,96.58
2019-03-28T18:43:10.476Z,98.37
2019-03-28T18:45:38.975Z,98.26
2019-03-28T18:48:09.147Z,98.50
2019-03-28T18:50:40.947Z,98.03
2019-03-28T18:53:08.933Z,98.49
2019-03-28T18:55:37.428Z,98.30
2019-03-28T18:58:05.961Z,98.99
2019-03-28T19:00:34.476Z,97.54
2019-03-28T19:03:02.960Z,97.61
2019-03-28T19:05:31.455Z,98.90
2019-03-28T19:08:00.142Z,99.60
2019-03-28T19:10:30.378Z,99.96
2019-03-28T19:12:58.856Z,99.61
2019-03-28T19:15:27.855Z,99.58
2019-03-28T19:17:56.373Z,100.00
2019-03-28T19:20:25.416Z,99.97
2019-03-28T19:22:54.031Z,100.00
2019-03-28T19:25:23.908Z,100.00
2019-03-28T19:27:52.388Z,100.00
2019-03-28T19:30:29.569Z,100.00
2019-03-28T19:32:58.034Z,100.00
2019-03-28T19:35:32.835Z,100.00
2019-03-28T19:37:58.300Z,100.00
2019-03-28T19:40:26.962Z,100.00
2019-03-28T19:42:55.438Z,100.00
2019-03-28T19:45:36.146Z,100.00
2019-03-28T19:48:05.762Z,100.00
2019-03-28T19:50:34.416Z,99.99
2019-03-28T19:53:02.917Z,100.00
2019-03-28T19:55:31.396Z,99.52
2019-03-28T19:57:59.881Z,99.19
2019-03-28T20:00:28.526Z,99.15
2019-03-28T20:03:00.245Z,99.42
2019-03-28T20:05:27.226Z,100.00
2019-03-28T20:07:55.717Z,99.58
2019-03-28T20:10:24.217Z,100.00
2019-03-28T20:12:52.697Z,99.89
2019-03-28T20:15:21.167Z,100.00
2019-03-28T20:17:49.670Z,100.00
2019-03-28T20:20:18.307Z,100.00
2019-03-28T20:22:46.888Z,100.00
2019-03-28T20:25:15.437Z,99.60
2019-03-28T20:27:43.929Z,100.00
2019-03-28T20:30:12.840Z,99.94
2019-03-28T20:32:41.802Z,99.70
2019-03-28T20:35:10.994Z,99.53
2019-03-28T20:37:39.600Z,99.59
2019-03-28T20:40:08.608Z,100.00
2019-03-28T20:42:37.111Z,100.00
2019-03-28T20:45:08.229Z,100.00
2019-03-28T20:47:36.796Z,100.00
2019-03-28T20:50:07.509Z,99.60
2019-03-28T20:52:36.065Z,99.76
2019-03-28T20:55:06.716Z,99.68
2019-03-28T20:57:35.941Z,99.33
2019-03-28T21:00:08.474Z,99.19
2019-03-28T21:02:37.265Z,99.68
2019-03-28T21:05:09.531Z,100.00
2019-03-28T21:07:38.081Z,100.00
2019-03-28T21:10:07.590Z,99.90
2019-03-28T21:12:36.048Z,99.82
2019-03-28T21:15:08.010Z,99.19
2019-03-28T21:17:36.482Z,98.87
2019-03-28T21:20:07.317Z,99.04
2019-03-28T21:22:35.801Z,98.16
2019-03-28T21:25:06.429Z,98.57
2019-03-28T21:27:34.901Z,98.88
2019-03-28T21:30:03.568Z,98.78
2019-03-28T21:32:32.036Z,99.19
2019-03-28T21:35:00.554Z,99.37
2019-03-28T21:37:29.184Z,99.52
2019-03-28T21:39:57.690Z,100.00
2019-03-28T21:42:26.149Z,99.80
2019-03-28T21:44:54.653Z,99.31
2019-03-28T21:47:23.130Z,99.60
2019-03-28T21:49:51.622Z,99.40
2019-03-28T21:52:20.092Z,99.71
2019-03-28T21:54:48.655Z,99.76
2019-03-28T21:57:17.142Z,99.58
2019-03-28T21:59:45.620Z,99.44
2019-03-28T22:02:14.084Z,99.40
2019-03-28T22:04:42.582Z,99.21
2019-03-28T22:07:11.045Z,99.10
2019-03-28T22:09:39.991Z,99.60
2019-03-28T22:12:08.607Z,99.82
2019-03-28T22:14:37.087Z,100.00
2019-03-28T22:17:05.601Z,99.81
2019-03-28T22:19:34.052Z,100.00
2019-03-28T22:22:02.525Z,99.67
2019-03-28T22:24:31.012Z,100.00
2019-03-28T22:26:59.482Z,99.82
2019-03-28T22:29:27.980Z,99.94
2019-03-28T22:31:56.951Z,100.00
2019-03-28T22:34:25.723Z,100.00
2019-03-28T22:36:57.689Z,100.00
2019-03-28T22:39:24.425Z,100.00
2019-03-28T22:41:52.917Z,100.00
2019-03-28T22:44:21.398Z,100.00
2019-03-28T22:46:49.881Z,100.00
2019-03-28T22:49:18.402Z,100.00
2019-03-28T22:51:46.880Z,100.00
2019-03-28T22:54:15.367Z,100.00
2019-03-28T22:56:43.836Z,100.00
2019-03-28T22:59:12.327Z,100.00
2019-03-28T23:01:40.801Z,100.00
2019-03-28T23:04:09.291Z,100.00
2019-03-28T23:06:37.762Z,100.00
2019-03-28T23:09:07.404Z,100.00
2019-03-28T23:11:35.954Z,100.00
2019-03-28T23:14:04.714Z,100.00
2019-03-28T23:16:33.192Z,100.00
2019-03-28T23:19:01.747Z,100.00
2019-03-28T23:21:30.234Z,100.00
2019-03-28T23:23:58.727Z,100.00
2019-03-28T23:26:27.242Z,100.00
2019-03-28T23:28:55.717Z,100.00
2019-03-28T23:31:24.224Z,100.00
2019-03-28T23:33:52.708Z,100.00
2019-03-28T23:36:21.215Z,100.00
2019-03-28T23:38:49.679Z,100.00
2019-03-28T23:41:18.183Z,100.00
2019-03-28T23:43:46.671Z,100.00
2019-03-28T23:46:15.144Z,100.00
2019-03-28T23:48:43.635Z,100.00
2019-03-28T23:51:12.156Z,100.00
2019-03-28T23:53:40.688Z,100.00
2019-03-28T23:56:09.203Z,100.00
2019-03-28T23:58:37.681Z,100.00
